sensor_id;sensor_type;location;lat;lon;timestamp;P1;durP1;ratioP1;P2;durP2;ratioP2
76107;SDS011;64834;52.516;10.528;2023-12-20T00:00:37;4.20;;;2.13;;
76107;SDS011;64834;52.516;10.528;2023-12-20T00:03:03;5.32;;;2.22;;
76107;SDS011;64834;52.516;10.528;2023-12-20T00:05:29;3.95;;;2.08;;
76107;SDS011;64834;52.516;10.528;2023-12-20T00:07:54;3.10;;;1.13;;
76107;SDS011;64834;52.516;10.528;2023-12-20T00:10:19;4.00;;;1.80;;
76107;SDS011;64834;52.516;10.528;2023-12-20T00:12:45;3.65;;;1.88;;
76107;SDS011;64834;52.516;10.528;2023-12-20T00:15:10;3.88;;;1.85;;
76107;SDS011;64834;52.516;10.528;2023-12-20T00:17:35;3.05;;;1.65;;
76107;SDS011;64834;52.516;10.528;2023-12-20T00:20:01;4.43;;;1.63;;
76107;SDS011;64834;52.516;10.528;2023-12-20T00:22:26;2.83;;;1.42;;
76107;SDS011;64834;52.516;10.528;2023-12-20T00:24:51;3.03;;;1.25;;
76107;SDS011;64834;52.516;10.528;2023-12-20T00:27:17;6.38;;;2.28;;
76107;SDS011;64834;52.516;10.528;2023-12-20T00:29:42;4.65;;;1.67;;
76107;SDS011;64834;52.516;10.528;2023-12-20T00:32:12;3.33;;;1.30;;
76107;SDS011;64834;52.516;10.528;2023-12-20T00:34:38;8.55;;;2.05;;
76107;SDS011;64834;52.516;10.528;2023-12-20T00:37:03;5.00;;;2.03;;
76107;SDS011;64834;52.516;10.528;2023-12-20T00:39:28;4.68;;;2.20;;
76107;SDS011;64834;52.516;10.528;2023-12-20T00:41:54;6.20;;;2.65;;
76107;SDS011;64834;52.516;10.528;2023-12-20T00:44:19;5.50;;;2.00;;
76107;SDS011;64834;52.516;10.528;2023-12-20T00:46:44;2.63;;;1.35;;
76107;SDS011;64834;52.516;10.528;2023-12-20T00:49:09;5.03;;;1.90;;
76107;SDS011;64834;52.516;10.528;2023-12-20T00:51:35;5.45;;;1.50;;
76107;SDS011;64834;52.516;10.528;2023-12-20T00:54:00;4.07;;;1.67;;
76107;SDS011;64834;52.516;10.528;2023-12-20T00:56:25;3.22;;;1.27;;
76107;SDS011;64834;52.516;10.528;2023-12-20T00:58:51;7.85;;;1.50;;
76107;SDS011;64834;52.516;10.528;2023-12-20T01:01:16;5.95;;;1.52;;
76107;SDS011;64834;52.516;10.528;2023-12-20T01:03:42;7.03;;;1.35;;
76107;SDS011;64834;52.516;10.528;2023-12-20T01:06:07;7.60;;;1.20;;
76107;SDS011;64834;52.516;10.528;2023-12-20T01:08:32;6.82;;;1.63;;
76107;SDS011;64834;52.516;10.528;2023-12-20T01:11:00;5.05;;;1.30;;
76107;SDS011;64834;52.516;10.528;2023-12-20T01:13:25;6.15;;;1.17;;
76107;SDS011;64834;52.516;10.528;2023-12-20T01:15:50;15.85;;;1.63;;
76107;SDS011;64834;52.516;10.528;2023-12-20T01:18:16;13.35;;;2.15;;
76107;SDS011;64834;52.516;10.528;2023-12-20T01:20:41;4.55;;;1.50;;
76107;SDS011;64834;52.516;10.528;2023-12-20T01:23:06;3.70;;;1.20;;
76107;SDS011;64834;52.516;10.528;2023-12-20T01:25:31;5.82;;;1.42;;
76107;SDS011;64834;52.516;10.528;2023-12-20T01:27:57;8.20;;;1.42;;
76107;SDS011;64834;52.516;10.528;2023-12-20T01:30:22;9.10;;;1.88;;
76107;SDS011;64834;52.516;10.528;2023-12-20T01:32:47;7.22;;;1.60;;
76107;SDS011;64834;52.516;10.528;2023-12-20T01:35:13;7.18;;;1.70;;
76107;SDS011;64834;52.516;10.528;2023-12-20T01:37:38;6.47;;;2.08;;
76107;SDS011;64834;52.516;10.528;2023-12-20T01:40:04;8.27;;;1.48;;
76107;SDS011;64834;52.516;10.528;2023-12-20T01:42:29;2.67;;;1.25;;
76107;SDS011;64834;52.516;10.528;2023-12-20T01:44:55;7.78;;;1.23;;
76107;SDS011;64834;52.516;10.528;2023-12-20T01:47:20;8.40;;;1.55;;
76107;SDS011;64834;52.516;10.528;2023-12-20T01:49:46;5.15;;;1.30;;
76107;SDS011;64834;52.516;10.528;2023-12-20T01:52:11;5.72;;;1.00;;
76107;SDS011;64834;52.516;10.528;2023-12-20T01:54:37;5.88;;;1.15;;
76107;SDS011;64834;52.516;10.528;2023-12-20T01:57:05;5.43;;;0.95;;
76107;SDS011;64834;52.516;10.528;2023-12-20T01:59:32;3.67;;;0.80;;
76107;SDS011;64834;52.516;10.528;2023-12-20T02:01:58;7.53;;;1.00;;
76107;SDS011;64834;52.516;10.528;2023-12-20T02:04:23;9.32;;;2.35;;
76107;SDS011;64834;52.516;10.528;2023-12-20T02:06:50;9.80;;;1.33;;
76107;SDS011;64834;52.516;10.528;2023-12-20T02:09:17;3.13;;;0.90;;
76107;SDS011;64834;52.516;10.528;2023-12-20T02:11:43;6.50;;;1.52;;
76107;SDS011;64834;52.516;10.528;2023-12-20T02:14:09;4.07;;;1.08;;
76107;SDS011;64834;52.516;10.528;2023-12-20T02:16:34;8.23;;;1.40;;
76107;SDS011;64834;52.516;10.528;2023-12-20T02:18:59;4.43;;;1.17;;
76107;SDS011;64834;52.516;10.528;2023-12-20T02:21:25;4.90;;;1.73;;
76107;SDS011;64834;52.516;10.528;2023-12-20T02:23:56;6.60;;;1.05;;
76107;SDS011;64834;52.516;10.528;2023-12-20T02:26:22;6.10;;;1.58;;
76107;SDS011;64834;52.516;10.528;2023-12-20T02:28:47;4.15;;;1.58;;
76107;SDS011;64834;52.516;10.528;2023-12-20T02:31:12;8.20;;;2.33;;
76107;SDS011;64834;52.516;10.528;2023-12-20T02:33:38;8.18;;;1.42;;
76107;SDS011;64834;52.516;10.528;2023-12-20T02:36:04;6.65;;;2.17;;
76107;SDS011;64834;52.516;10.528;2023-12-20T02:38:31;6.05;;;1.48;;
76107;SDS011;64834;52.516;10.528;2023-12-20T02:40:56;3.22;;;1.13;;
76107;SDS011;64834;52.516;10.528;2023-12-20T02:43:21;2.17;;;1.05;;
76107;SDS011;64834;52.516;10.528;2023-12-20T02:45:47;7.22;;;1.00;;
76107;SDS011;64834;52.516;10.528;2023-12-20T02:48:12;5.10;;;1.08;;
76107;SDS011;64834;52.516;10.528;2023-12-20T02:50:38;5.03;;;1.33;;
76107;SDS011;64834;52.516;10.528;2023-12-20T02:53:03;5.75;;;1.20;;
76107;SDS011;64834;52.516;10.528;2023-12-20T02:55:28;2.72;;;0.80;;
76107;SDS011;64834;52.516;10.528;2023-12-20T02:57:54;6.32;;;0.77;;
76107;SDS011;64834;52.516;10.528;2023-12-20T03:00:19;9.65;;;1.23;;
76107;SDS011;64834;52.516;10.528;2023-12-20T03:02:44;4.57;;;1.10;;
76107;SDS011;64834;52.516;10.528;2023-12-20T03:05:09;4.57;;;0.90;;
76107;SDS011;64834;52.516;10.528;2023-12-20T03:07:36;11.18;;;1.30;;
76107;SDS011;64834;52.516;10.528;2023-12-20T03:10:02;6.78;;;1.67;;
76107;SDS011;64834;52.516;10.528;2023-12-20T03:12:28;3.15;;;1.00;;
76107;SDS011;64834;52.516;10.528;2023-12-20T03:14:53;9.07;;;0.93;;
76107;SDS011;64834;52.516;10.528;2023-12-20T03:17:18;5.80;;;1.33;;
76107;SDS011;64834;52.516;10.528;2023-12-20T03:19:44;2.40;;;0.80;;
76107;SDS011;64834;52.516;10.528;2023-12-20T03:22:09;4.10;;;0.85;;
76107;SDS011;64834;52.516;10.528;2023-12-20T03:24:35;6.45;;;1.15;;
76107;SDS011;64834;52.516;10.528;2023-12-20T03:27:00;10.35;;;1.80;;
76107;SDS011;64834;52.516;10.528;2023-12-20T03:29:26;9.02;;;1.67;;
76107;SDS011;64834;52.516;10.528;2023-12-20T03:31:51;9.23;;;1.33;;
76107;SDS011;64834;52.516;10.528;2023-12-20T03:34:16;9.63;;;1.73;;
76107;SDS011;64834;52.516;10.528;2023-12-20T03:36:42;6.03;;;1.20;;
76107;SDS011;64834;52.516;10.528;2023-12-20T03:39:07;10.77;;;1.48;;
76107;SDS011;64834;52.516;10.528;2023-12-20T03:41:32;4.78;;;0.98;;
76107;SDS011;64834;52.516;10.528;2023-12-20T03:43:58;9.30;;;0.98;;
76107;SDS011;64834;52.516;10.528;2023-12-20T03:46:23;4.80;;;1.50;;
76107;SDS011;64834;52.516;10.528;2023-12-20T03:48:49;6.82;;;1.38;;
76107;SDS011;64834;52.516;10.528;2023-12-20T03:51:14;3.00;;;1.10;;
76107;SDS011;64834;52.516;10.528;2023-12-20T03:53:39;7.22;;;1.48;;
76107;SDS011;64834;52.516;10.528;2023-12-20T03:56:05;6.05;;;1.30;;
76107;SDS011;64834;52.516;10.528;2023-12-20T03:58:31;11.30;;;1.42;;
76107;SDS011;64834;52.516;10.528;2023-12-20T04:00:56;7.00;;;1.13;;
76107;SDS011;64834;52.516;10.528;2023-12-20T04:03:22;6.47;;;1.23;;
76107;SDS011;64834;52.516;10.528;2023-12-20T04:05:47;6.63;;;1.38;;
76107;SDS011;64834;52.516;10.528;2023-12-20T04:08:12;8.30;;;1.73;;
76107;SDS011;64834;52.516;10.528;2023-12-20T04:10:37;7.35;;;1.70;;
76107;SDS011;64834;52.516;10.528;2023-12-20T04:13:03;7.10;;;2.30;;
76107;SDS011;64834;52.516;10.528;2023-12-20T04:15:29;7.50;;;1.40;;
76107;SDS011;64834;52.516;10.528;2023-12-20T04:17:54;7.60;;;1.75;;
76107;SDS011;64834;52.516;10.528;2023-12-20T04:20:20;10.30;;;2.00;;
76107;SDS011;64834;52.516;10.528;2023-12-20T04:22:45;7.72;;;1.80;;
76107;SDS011;64834;52.516;10.528;2023-12-20T04:25:10;9.38;;;1.75;;
76107;SDS011;64834;52.516;10.528;2023-12-20T04:27:36;12.60;;;3.25;;
76107;SDS011;64834;52.516;10.528;2023-12-20T04:30:01;8.65;;;1.60;;
76107;SDS011;64834;52.516;10.528;2023-12-20T04:32:26;6.82;;;1.42;;
76107;SDS011;64834;52.516;10.528;2023-12-20T04:34:52;6.40;;;1.00;;
76107;SDS011;64834;52.516;10.528;2023-12-20T04:37:17;6.38;;;1.42;;
76107;SDS011;64834;52.516;10.528;2023-12-20T04:39:42;3.72;;;0.85;;
76107;SDS011;64834;52.516;10.528;2023-12-20T04:42:08;8.07;;;1.45;;
76107;SDS011;64834;52.516;10.528;2023-12-20T04:44:33;7.18;;;1.60;;
76107;SDS011;64834;52.516;10.528;2023-12-20T04:46:59;13.07;;;1.88;;
76107;SDS011;64834;52.516;10.528;2023-12-20T04:49:24;6.40;;;1.40;;
76107;SDS011;64834;52.516;10.528;2023-12-20T04:51:50;6.57;;;1.23;;
76107;SDS011;64834;52.516;10.528;2023-12-20T04:54:15;5.65;;;0.90;;
76107;SDS011;64834;52.516;10.528;2023-12-20T04:56:41;6.13;;;1.33;;
76107;SDS011;64834;52.516;10.528;2023-12-20T04:59:06;4.53;;;1.20;;
76107;SDS011;64834;52.516;10.528;2023-12-20T05:01:31;3.95;;;0.70;;
76107;SDS011;64834;52.516;10.528;2023-12-20T05:03:57;7.15;;;1.17;;
76107;SDS011;64834;52.516;10.528;2023-12-20T05:06:22;7.18;;;1.17;;
76107;SDS011;64834;52.516;10.528;2023-12-20T05:08:47;5.97;;;0.98;;
76107;SDS011;64834;52.516;10.528;2023-12-20T05:11:13;5.90;;;1.02;;
76107;SDS011;64834;52.516;10.528;2023-12-20T05:13:40;9.57;;;1.00;;
76107;SDS011;64834;52.516;10.528;2023-12-20T05:16:05;7.38;;;1.30;;
76107;SDS011;64834;52.516;10.528;2023-12-20T05:18:30;5.43;;;1.67;;
76107;SDS011;64834;52.516;10.528;2023-12-20T05:20:56;4.93;;;1.08;;
76107;SDS011;64834;52.516;10.528;2023-12-20T05:23:21;6.57;;;1.35;;
76107;SDS011;64834;52.516;10.528;2023-12-20T05:25:47;5.65;;;0.73;;
76107;SDS011;64834;52.516;10.528;2023-12-20T05:28:12;6.78;;;1.42;;
76107;SDS011;64834;52.516;10.528;2023-12-20T05:30:37;8.23;;;2.00;;
76107;SDS011;64834;52.516;10.528;2023-12-20T05:33:03;5.35;;;1.08;;
76107;SDS011;64834;52.516;10.528;2023-12-20T05:35:28;6.78;;;1.20;;
76107;SDS011;64834;52.516;10.528;2023-12-20T05:37:54;8.82;;;1.48;;
76107;SDS011;64834;52.516;10.528;2023-12-20T05:40:19;7.85;;;1.80;;
76107;SDS011;64834;52.516;10.528;2023-12-20T05:42:44;6.85;;;1.45;;
76107;SDS011;64834;52.516;10.528;2023-12-20T05:45:10;4.38;;;1.23;;
76107;SDS011;64834;52.516;10.528;2023-12-20T05:47:35;8.23;;;1.48;;
76107;SDS011;64834;52.516;10.528;2023-12-20T05:50:01;10.32;;;1.40;;
76107;SDS011;64834;52.516;10.528;2023-12-20T05:52:26;5.82;;;0.98;;
76107;SDS011;64834;52.516;10.528;2023-12-20T05:54:51;6.55;;;1.48;;
76107;SDS011;64834;52.516;10.528;2023-12-20T05:57:17;3.03;;;1.10;;
76107;SDS011;64834;52.516;10.528;2023-12-20T05:59:42;7.75;;;1.85;;
76107;SDS011;64834;52.516;10.528;2023-12-20T06:02:07;9.07;;;1.63;;
76107;SDS011;64834;52.516;10.528;2023-12-20T06:04:33;6.85;;;1.63;;
76107;SDS011;64834;52.516;10.528;2023-12-20T06:06:58;5.03;;;1.40;;
76107;SDS011;64834;52.516;10.528;2023-12-20T06:09:24;2.72;;;1.05;;
76107;SDS011;64834;52.516;10.528;2023-12-20T06:11:49;7.00;;;1.27;;
76107;SDS011;64834;52.516;10.528;2023-12-20T06:14:16;5.43;;;1.15;;
76107;SDS011;64834;52.516;10.528;2023-12-20T06:16:41;6.55;;;2.03;;
76107;SDS011;64834;52.516;10.528;2023-12-20T06:19:06;7.88;;;2.03;;
76107;SDS011;64834;52.516;10.528;2023-12-20T06:21:31;7.07;;;1.90;;
76107;SDS011;64834;52.516;10.528;2023-12-20T06:23:58;6.05;;;0.93;;
76107;SDS011;64834;52.516;10.528;2023-12-20T06:26:24;6.40;;;2.17;;
76107;SDS011;64834;52.516;10.528;2023-12-20T06:28:49;3.65;;;1.38;;
76107;SDS011;64834;52.516;10.528;2023-12-20T06:31:15;5.53;;;0.73;;
76107;SDS011;64834;52.516;10.528;2023-12-20T06:33:40;8.52;;;1.70;;
76107;SDS011;64834;52.516;10.528;2023-12-20T06:36:11;9.30;;;2.15;;
76107;SDS011;64834;52.516;10.528;2023-12-20T06:38:37;6.50;;;1.27;;
76107;SDS011;64834;52.516;10.528;2023-12-20T06:41:02;7.88;;;1.50;;
76107;SDS011;64834;52.516;10.528;2023-12-20T06:43:28;6.32;;;1.60;;
76107;SDS011;64834;52.516;10.528;2023-12-20T06:45:54;4.35;;;1.48;;
76107;SDS011;64834;52.516;10.528;2023-12-20T06:48:19;8.10;;;1.70;;
76107;SDS011;64834;52.516;10.528;2023-12-20T06:50:45;7.53;;;1.40;;
76107;SDS011;64834;52.516;10.528;2023-12-20T06:53:11;5.80;;;1.67;;
76107;SDS011;64834;52.516;10.528;2023-12-20T06:55:37;8.00;;;1.50;;
76107;SDS011;64834;52.516;10.528;2023-12-20T06:58:03;5.90;;;1.60;;
76107;SDS011;64834;52.516;10.528;2023-12-20T07:00:29;6.15;;;2.00;;
76107;SDS011;64834;52.516;10.528;2023-12-20T07:02:54;9.20;;;2.33;;
76107;SDS011;64834;52.516;10.528;2023-12-20T07:05:20;6.40;;;1.20;;
76107;SDS011;64834;52.516;10.528;2023-12-20T07:07:45;6.88;;;1.75;;
76107;SDS011;64834;52.516;10.528;2023-12-20T07:10:12;9.93;;;2.05;;
76107;SDS011;64834;52.516;10.528;2023-12-20T07:12:37;5.95;;;1.10;;
76107;SDS011;64834;52.516;10.528;2023-12-20T07:15:03;5.30;;;1.30;;
76107;SDS011;64834;52.516;10.528;2023-12-20T07:17:28;6.78;;;1.75;;
76107;SDS011;64834;52.516;10.528;2023-12-20T07:19:53;8.98;;;1.05;;
76107;SDS011;64834;52.516;10.528;2023-12-20T07:22:19;3.95;;;1.35;;
76107;SDS011;64834;52.516;10.528;2023-12-20T07:24:44;4.22;;;1.23;;
76107;SDS011;64834;52.516;10.528;2023-12-20T07:27:10;6.35;;;1.48;;
76107;SDS011;64834;52.516;10.528;2023-12-20T07:29:36;6.53;;;1.63;;
76107;SDS011;64834;52.516;10.528;2023-12-20T07:32:01;3.70;;;1.30;;
76107;SDS011;64834;52.516;10.528;2023-12-20T07:34:27;6.47;;;1.60;;
76107;SDS011;64834;52.516;10.528;2023-12-20T07:36:52;9.57;;;2.10;;
76107;SDS011;64834;52.516;10.528;2023-12-20T07:39:17;6.43;;;1.55;;
76107;SDS011;64834;52.516;10.528;2023-12-20T07:41:43;6.22;;;2.28;;
76107;SDS011;64834;52.516;10.528;2023-12-20T07:44:09;5.05;;;1.38;;
76107;SDS011;64834;52.516;10.528;2023-12-20T07:46:34;9.20;;;2.03;;
76107;SDS011;64834;52.516;10.528;2023-12-20T07:48:59;13.82;;;2.20;;
76107;SDS011;64834;52.516;10.528;2023-12-20T07:51:25;6.53;;;1.45;;
76107;SDS011;64834;52.516;10.528;2023-12-20T07:53:51;5.38;;;2.10;;
76107;SDS011;64834;52.516;10.528;2023-12-20T07:56:17;7.30;;;2.20;;
76107;SDS011;64834;52.516;10.528;2023-12-20T07:58:44;9.60;;;1.77;;
76107;SDS011;64834;52.516;10.528;2023-12-20T08:01:10;8.95;;;1.20;;
76107;SDS011;64834;52.516;10.528;2023-12-20T08:03:36;12.30;;;2.45;;
76107;SDS011;64834;52.516;10.528;2023-12-20T08:06:01;5.30;;;1.73;;
76107;SDS011;64834;52.516;10.528;2023-12-20T08:08:27;5.00;;;1.40;;
76107;SDS011;64834;52.516;10.528;2023-12-20T08:10:53;5.07;;;1.25;;
76107;SDS011;64834;52.516;10.528;2023-12-20T08:13:18;10.60;;;1.55;;
76107;SDS011;64834;52.516;10.528;2023-12-20T08:15:44;7.75;;;1.38;;
76107;SDS011;64834;52.516;10.528;2023-12-20T08:18:09;9.10;;;1.75;;
76107;SDS011;64834;52.516;10.528;2023-12-20T08:20:34;10.40;;;1.75;;
76107;SDS011;64834;52.516;10.528;2023-12-20T08:23:00;11.00;;;1.65;;
76107;SDS011;64834;52.516;10.528;2023-12-20T08:25:25;9.75;;;1.50;;
76107;SDS011;64834;52.516;10.528;2023-12-20T08:27:50;7.43;;;1.55;;
76107;SDS011;64834;52.516;10.528;2023-12-20T08:30:16;4.07;;;0.95;;
76107;SDS011;64834;52.516;10.528;2023-12-20T08:32:46;6.97;;;1.45;;
76107;SDS011;64834;52.516;10.528;2023-12-20T08:35:12;9.05;;;1.58;;
76107;SDS011;64834;52.516;10.528;2023-12-20T08:37:38;3.83;;;1.55;;
76107;SDS011;64834;52.516;10.528;2023-12-20T08:40:03;10.32;;;1.52;;
76107;SDS011;64834;52.516;10.528;2023-12-20T08:42:29;3.92;;;1.23;;
76107;SDS011;64834;52.516;10.528;2023-12-20T08:44:56;7.00;;;1.42;;
76107;SDS011;64834;52.516;10.528;2023-12-20T08:47:23;10.88;;;1.67;;
76107;SDS011;64834;52.516;10.528;2023-12-20T08:49:48;8.32;;;1.67;;
76107;SDS011;64834;52.516;10.528;2023-12-20T08:52:14;6.85;;;1.25;;
76107;SDS011;64834;52.516;10.528;2023-12-20T08:54:39;7.50;;;1.70;;
76107;SDS011;64834;52.516;10.528;2023-12-20T08:57:04;7.80;;;1.10;;
76107;SDS011;64834;52.516;10.528;2023-12-20T08:59:31;6.10;;;1.33;;
76107;SDS011;64834;52.516;10.528;2023-12-20T09:01:57;7.65;;;1.45;;
76107;SDS011;64834;52.516;10.528;2023-12-20T09:04:22;8.68;;;1.50;;
76107;SDS011;64834;52.516;10.528;2023-12-20T09:06:47;5.25;;;1.20;;
76107;SDS011;64834;52.516;10.528;2023-12-20T09:09:13;6.90;;;1.50;;
76107;SDS011;64834;52.516;10.528;2023-12-20T09:14:07;2.65;;;0.90;;
76107;SDS011;64834;52.516;10.528;2023-12-20T09:16:32;8.90;;;1.48;;
76107;SDS011;64834;52.516;10.528;2023-12-20T09:18:58;5.57;;;1.25;;
76107;SDS011;64834;52.516;10.528;2023-12-20T09:21:23;5.53;;;1.30;;
76107;SDS011;64834;52.516;10.528;2023-12-20T09:23:48;4.95;;;0.93;;
76107;SDS011;64834;52.516;10.528;2023-12-20T09:26:14;8.48;;;1.70;;
76107;SDS011;64834;52.516;10.528;2023-12-20T09:28:39;5.22;;;0.88;;
76107;SDS011;64834;52.516;10.528;2023-12-20T09:31:05;8.18;;;2.00;;
76107;SDS011;64834;52.516;10.528;2023-12-20T09:33:31;6.05;;;1.40;;
76107;SDS011;64834;52.516;10.528;2023-12-20T09:35:57;6.28;;;1.23;;
76107;SDS011;64834;52.516;10.528;2023-12-20T09:38:22;6.30;;;1.63;;
76107;SDS011;64834;52.516;10.528;2023-12-20T09:40:47;5.93;;;1.50;;
76107;SDS011;64834;52.516;10.528;2023-12-20T09:43:17;9.60;;;3.55;;
76107;SDS011;64834;52.516;10.528;2023-12-20T09:45:45;10.20;;;1.77;;
76107;SDS011;64834;52.516;10.528;2023-12-20T09:48:12;6.47;;;1.70;;
76107;SDS011;64834;52.516;10.528;2023-12-20T09:50:39;7.93;;;1.63;;
76107;SDS011;64834;52.516;10.528;2023-12-20T09:53:05;8.75;;;1.70;;
76107;SDS011;64834;52.516;10.528;2023-12-20T09:55:34;9.82;;;1.48;;
76107;SDS011;64834;52.516;10.528;2023-12-20T09:58:01;7.57;;;1.67;;
76107;SDS011;64834;52.516;10.528;2023-12-20T10:00:26;5.78;;;1.40;;
76107;SDS011;64834;52.516;10.528;2023-12-20T10:03:01;6.60;;;1.60;;
76107;SDS011;64834;52.516;10.528;2023-12-20T10:05:32;4.65;;;1.20;;
76107;SDS011;64834;52.516;10.528;2023-12-20T10:07:59;6.88;;;1.27;;
76107;SDS011;64834;52.516;10.528;2023-12-20T10:10:25;8.45;;;1.83;;
76107;SDS011;64834;52.516;10.528;2023-12-20T10:13:07;8.32;;;1.63;;
76107;SDS011;64834;52.516;10.528;2023-12-20T10:15:37;4.45;;;1.23;;
76107;SDS011;64834;52.516;10.528;2023-12-20T10:18:03;4.97;;;1.38;;
76107;SDS011;64834;52.516;10.528;2023-12-20T10:20:29;7.15;;;1.33;;
76107;SDS011;64834;52.516;10.528;2023-12-20T10:22:56;6.50;;;1.27;;
76107;SDS011;64834;52.516;10.528;2023-12-20T10:25:22;7.60;;;1.55;;
76107;SDS011;64834;52.516;10.528;2023-12-20T10:27:47;7.68;;;1.23;;
76107;SDS011;64834;52.516;10.528;2023-12-20T10:30:14;9.52;;;1.65;;
76107;SDS011;64834;52.516;10.528;2023-12-20T10:32:39;3.13;;;1.23;;
76107;SDS011;64834;52.516;10.528;2023-12-20T10:35:05;7.60;;;1.48;;
76107;SDS011;64834;52.516;10.528;2023-12-20T10:37:34;12.45;;;1.73;;
76107;SDS011;64834;52.516;10.528;2023-12-20T10:40:01;6.75;;;1.52;;
76107;SDS011;64834;52.516;10.528;2023-12-20T10:42:29;5.85;;;1.10;;
76107;SDS011;64834;52.516;10.528;2023-12-20T10:44:55;10.27;;;1.75;;
76107;SDS011;64834;52.516;10.528;2023-12-20T10:47:20;7.53;;;1.33;;
76107;SDS011;64834;52.516;10.528;2023-12-20T10:49:45;5.55;;;1.35;;
76107;SDS011;64834;52.516;10.528;2023-12-20T10:52:12;7.47;;;1.55;;
76107;SDS011;64834;52.516;10.528;2023-12-20T10:54:40;6.15;;;1.05;;
76107;SDS011;64834;52.516;10.528;2023-12-20T10:57:06;8.50;;;2.17;;
76107;SDS011;64834;52.516;10.528;2023-12-20T10:59:33;7.93;;;1.50;;
76107;SDS011;64834;52.516;10.528;2023-12-20T11:01:59;8.30;;;1.85;;
76107;SDS011;64834;52.516;10.528;2023-12-20T11:04:30;5.05;;;1.10;;
76107;SDS011;64834;52.516;10.528;2023-12-20T11:07:16;3.53;;;0.82;;
76107;SDS011;64834;52.516;10.528;2023-12-20T11:10:20;6.95;;;1.50;;
76107;SDS011;64834;52.516;10.528;2023-12-20T11:12:43;7.28;;;1.20;;
76107;SDS011;64834;52.516;10.528;2023-12-20T11:15:29;5.25;;;1.48;;
76107;SDS011;64834;52.516;10.528;2023-12-20T11:17:55;5.88;;;1.23;;
76107;SDS011;64834;52.516;10.528;2023-12-20T11:20:22;5.50;;;1.25;;
76107;SDS011;64834;52.516;10.528;2023-12-20T11:22:52;5.97;;;1.20;;
76107;SDS011;64834;52.516;10.528;2023-12-20T11:25:18;7.78;;;1.35;;
76107;SDS011;64834;52.516;10.528;2023-12-20T11:27:44;4.25;;;1.08;;
76107;SDS011;64834;52.516;10.528;2023-12-20T11:30:29;4.03;;;1.13;;
76107;SDS011;64834;52.516;10.528;2023-12-20T11:33:26;5.25;;;1.55;;
76107;SDS011;64834;52.516;10.528;2023-12-20T11:35:55;3.20;;;0.80;;
76107;SDS011;64834;52.516;10.528;2023-12-20T11:38:21;4.22;;;1.05;;
76107;SDS011;64834;52.516;10.528;2023-12-20T11:40:50;4.50;;;1.02;;
76107;SDS011;64834;52.516;10.528;2023-12-20T11:43:31;4.53;;;1.02;;
76107;SDS011;64834;52.516;10.528;2023-12-20T11:46:03;4.40;;;1.27;;
76107;SDS011;64834;52.516;10.528;2023-12-20T11:48:29;12.57;;;2.17;;
76107;SDS011;64834;52.516;10.528;2023-12-20T11:50:56;4.35;;;1.45;;
76107;SDS011;64834;52.516;10.528;2023-12-20T11:53:21;4.30;;;1.35;;
76107;SDS011;64834;52.516;10.528;2023-12-20T11:55:49;3.65;;;1.42;;
76107;SDS011;64834;52.516;10.528;2023-12-20T11:58:15;5.82;;;1.40;;
76107;SDS011;64834;52.516;10.528;2023-12-20T12:00:41;3.58;;;0.55;;
76107;SDS011;64834;52.516;10.528;2023-12-20T12:03:08;2.67;;;0.57;;
76107;SDS011;64834;52.516;10.528;2023-12-20T12:05:34;0.43;;;0.13;;
76107;SDS011;64834;52.516;10.528;2023-12-20T12:08:00;0.30;;;0.10;;
76107;SDS011;64834;52.516;10.528;2023-12-20T12:10:25;1.05;;;0.03;;
76107;SDS011;64834;52.516;10.528;2023-12-20T12:12:51;1.20;;;0.20;;
76107;SDS011;64834;52.516;10.528;2023-12-20T12:15:16;0.85;;;0.10;;
76107;SDS011;64834;52.516;10.528;2023-12-20T12:17:42;0.73;;;0.28;;
76107;SDS011;64834;52.516;10.528;2023-12-20T12:20:07;0.50;;;0.10;;
76107;SDS011;64834;52.516;10.528;2023-12-20T12:22:34;0.38;;;0.10;;
76107;SDS011;64834;52.516;10.528;2023-12-20T12:25:09;0.70;;;0.10;;
76107;SDS011;64834;52.516;10.528;2023-12-20T12:27:36;5.47;;;0.30;;
76107;SDS011;64834;52.516;10.528;2023-12-20T12:30:03;1.55;;;0.13;;
76107;SDS011;64834;52.516;10.528;2023-12-20T12:32:32;0.75;;;0.00;;
76107;SDS011;64834;52.516;10.528;2023-12-20T12:34:57;0.30;;;0.00;;
76107;SDS011;64834;52.516;10.528;2023-12-20T12:37:22;1.85;;;0.22;;
76107;SDS011;64834;52.516;10.528;2023-12-20T12:39:49;0.77;;;0.47;;
76107;SDS011;64834;52.516;10.528;2023-12-20T12:42:14;2.58;;;0.40;;
76107;SDS011;64834;52.516;10.528;2023-12-20T12:44:40;0.17;;;0.08;;
76107;SDS011;64834;52.516;10.528;2023-12-20T12:47:05;3.15;;;0.45;;
76107;SDS011;64834;52.516;10.528;2023-12-20T12:49:30;1.58;;;0.20;;
76107;SDS011;64834;52.516;10.528;2023-12-20T12:51:57;6.18;;;0.52;;
76107;SDS011;64834;52.516;10.528;2023-12-20T12:54:23;1.98;;;0.20;;
76107;SDS011;64834;52.516;10.528;2023-12-20T12:56:48;3.28;;;0.35;;
76107;SDS011;64834;52.516;10.528;2023-12-20T12:59:15;3.60;;;0.60;;
76107;SDS011;64834;52.516;10.528;2023-12-20T13:01:41;2.45;;;0.30;;
76107;SDS011;64834;52.516;10.528;2023-12-20T13:04:06;0.77;;;0.30;;
76107;SDS011;64834;52.516;10.528;2023-12-20T13:06:35;3.15;;;0.50;;
76107;SDS011;64834;52.516;10.528;2023-12-20T13:09:04;2.38;;;0.77;;
76107;SDS011;64834;52.516;10.528;2023-12-20T13:11:30;2.88;;;0.63;;
76107;SDS011;64834;52.516;10.528;2023-12-20T13:13:56;1.95;;;0.52;;
76107;SDS011;64834;52.516;10.528;2023-12-20T13:16:22;1.48;;;0.50;;
76107;SDS011;64834;52.516;10.528;2023-12-20T13:18:48;2.40;;;0.60;;
76107;SDS011;64834;52.516;10.528;2023-12-20T13:21:13;3.10;;;0.65;;
76107;SDS011;64834;52.516;10.528;2023-12-20T13:23:38;2.83;;;0.50;;
76107;SDS011;64834;52.516;10.528;2023-12-20T13:26:04;4.78;;;0.52;;
76107;SDS011;64834;52.516;10.528;2023-12-20T13:28:29;5.85;;;0.95;;
76107;SDS011;64834;52.516;10.528;2023-12-20T13:30:54;3.13;;;0.47;;
76107;SDS011;64834;52.516;10.528;2023-12-20T13:33:20;1.77;;;0.73;;
76107;SDS011;64834;52.516;10.528;2023-12-20T13:35:45;3.83;;;0.88;;
76107;SDS011;64834;52.516;10.528;2023-12-20T13:38:12;3.60;;;0.60;;
76107;SDS011;64834;52.516;10.528;2023-12-20T13:40:37;3.03;;;0.50;;
76107;SDS011;64834;52.516;10.528;2023-12-20T13:43:03;3.40;;;0.63;;
76107;SDS011;64834;52.516;10.528;2023-12-20T13:45:28;3.88;;;0.40;;
76107;SDS011;64834;52.516;10.528;2023-12-20T13:47:54;1.30;;;0.30;;
76107;SDS011;64834;52.516;10.528;2023-12-20T13:50:19;1.63;;;0.50;;
76107;SDS011;64834;52.516;10.528;2023-12-20T13:52:45;4.90;;;0.55;;
76107;SDS011;64834;52.516;10.528;2023-12-20T13:55:11;1.88;;;0.20;;
76107;SDS011;64834;52.516;10.528;2023-12-20T13:57:36;4.13;;;0.35;;
76107;SDS011;64834;52.516;10.528;2023-12-20T14:00:06;1.70;;;0.30;;
76107;SDS011;64834;52.516;10.528;2023-12-20T14:02:39;2.65;;;0.73;;
76107;SDS011;64834;52.516;10.528;2023-12-20T14:05:04;5.47;;;1.02;;
76107;SDS011;64834;52.516;10.528;2023-12-20T14:07:31;2.15;;;0.15;;
76107;SDS011;64834;52.516;10.528;2023-12-20T14:09:56;5.28;;;1.20;;
76107;SDS011;64834;52.516;10.528;2023-12-20T14:12:22;3.92;;;0.82;;
76107;SDS011;64834;52.516;10.528;2023-12-20T14:14:47;3.55;;;0.52;;
76107;SDS011;64834;52.516;10.528;2023-12-20T14:17:12;2.92;;;0.68;;
76107;SDS011;64834;52.516;10.528;2023-12-20T14:19:38;1.98;;;0.30;;
76107;SDS011;64834;52.516;10.528;2023-12-20T14:22:04;4.57;;;0.82;;
76107;SDS011;64834;52.516;10.528;2023-12-20T14:24:30;3.38;;;0.40;;
76107;SDS011;64834;52.516;10.528;2023-12-20T14:26:55;5.18;;;0.60;;
76107;SDS011;64834;52.516;10.528;2023-12-20T14:29:20;2.03;;;0.40;;